createdAt,value
2023-03-17T00:02:11.466Z,16.10
2023-03-17T00:04:41.164Z,14.70
2023-03-17T00:07:14.863Z,18.90
2023-03-17T00:09:44.194Z,17.10
2023-03-17T00:12:14.685Z,14.50
2023-03-17T00:14:45.786Z,13.30
2023-03-17T00:17:15.432Z,14.10
2023-03-17T00:19:45.006Z,15.90
2023-03-17T00:22:19.214Z,16.80
2023-03-17T00:24:48.339Z,14.30
2023-03-17T00:27:17.404Z,17.70
2023-03-17T00:29:47.161Z,16.60
2023-03-17T00:32:19.813Z,15.90
2023-03-17T00:34:48.951Z,16.80
2023-03-17T00:37:17.910Z,15.50
2023-03-17T00:39:46.800Z,16.00
2023-03-17T00:42:15.693Z,14.70
2023-03-17T00:44:45.283Z,17.30
2023-03-17T00:47:14.500Z,14.30
2023-03-17T00:49:43.599Z,17.20
2023-03-17T00:52:12.692Z,15.60
2023-03-17T00:54:41.831Z,15.00
2023-03-17T00:57:12.106Z,13.60
2023-03-17T00:59:43.085Z,17.00
2023-03-17T01:02:13.370Z,15.80
2023-03-17T01:04:49.981Z,16.00
2023-03-17T01:07:22.160Z,18.80
2023-03-17T01:09:51.256Z,17.70
2023-03-17T01:12:20.687Z,16.10
2023-03-17T01:14:49.763Z,18.40
2023-03-17T01:17:19.234Z,15.70
2023-03-17T01:19:48.690Z,16.60
2023-03-17T01:22:17.742Z,15.30
2023-03-17T01:24:47.248Z,15.60
2023-03-17T01:27:17.877Z,17.40
2023-03-17T01:29:46.924Z,15.30
2023-03-17T01:32:16.440Z,17.60
2023-03-17T01:34:46.041Z,15.60
2023-03-17T01:37:15.052Z,15.00
2023-03-17T01:39:44.970Z,16.90
2023-03-17T01:42:14.204Z,16.20
2023-03-17T01:44:59.099Z,18.80
2023-03-17T01:47:30.054Z,15.30
2023-03-17T01:50:04.666Z,15.30
2023-03-17T01:52:37.789Z,15.70
2023-03-17T01:55:11.791Z,15.20
2023-03-17T01:57:45.081Z,15.20
2023-03-17T02:00:18.271Z,13.80
2023-03-17T02:02:49.681Z,17.20
2023-03-17T02:05:22.422Z,14.40
2023-03-17T02:07:52.989Z,14.40
2023-03-17T02:10:24.987Z,12.00
2023-03-17T02:12:56.856Z,14.60
2023-03-17T02:15:38.441Z,15.90
2023-03-17T02:18:08.676Z,14.00
2023-03-17T02:21:14.953Z,12.00
2023-03-17T02:23:44.248Z,14.60
2023-03-17T02:26:13.362Z,14.40
2023-03-17T02:28:45.502Z,14.10
2023-03-17T02:31:14.905Z,13.40
2023-03-17T02:33:43.994Z,14.90
2023-03-17T02:36:13.130Z,13.90
2023-03-17T02:38:42.092Z,16.20
2023-03-17T02:41:11.129Z,15.20
2023-03-17T02:43:40.870Z,16.20
2023-03-17T02:46:10.082Z,12.40
2023-03-17T02:48:40.310Z,17.80
2023-03-17T02:51:09.346Z,17.00
2023-03-17T02:53:38.311Z,14.30
2023-03-17T02:56:09.056Z,14.80
2023-03-17T02:58:38.077Z,14.00
2023-03-17T03:01:09.105Z,14.30
2023-03-17T03:03:38.099Z,12.10
2023-03-17T03:06:08.181Z,13.80
2023-03-17T03:08:37.295Z,15.20
2023-03-17T03:11:06.606Z,16.80
2023-03-17T03:13:36.196Z,15.30
2023-03-17T03:16:06.040Z,12.60
2023-03-17T03:18:35.182Z,15.00
2023-03-17T03:21:05.296Z,12.50
2023-03-17T03:23:34.712Z,13.60
2023-03-17T03:26:03.833Z,14.30
2023-03-17T03:28:33.048Z,14.40
2023-03-17T03:31:02.585Z,12.90
2023-03-17T03:33:31.805Z,12.80
2023-03-17T03:36:00.881Z,12.20
2023-03-17T03:38:30.112Z,15.50
2023-03-17T03:40:59.204Z,14.90
2023-03-17T03:43:28.225Z,14.10
2023-03-17T03:45:57.236Z,13.60
2023-03-17T03:48:26.350Z,14.70
2023-03-17T03:50:58.498Z,12.70
2023-03-17T03:53:28.263Z,15.30
2023-03-17T03:55:57.198Z,11.50
2023-03-17T03:58:26.283Z,13.00
2023-03-17T04:00:55.424Z,14.00
2023-03-17T04:03:24.617Z,13.30
2023-03-17T04:05:53.508Z,14.90
2023-03-17T04:08:22.462Z,12.10
2023-03-17T04:10:51.443Z,16.20
2023-03-17T04:13:20.301Z,12.70
2023-03-17T04:15:49.623Z,12.80
2023-03-17T04:18:18.994Z,14.30
2023-03-17T04:20:48.109Z,13.80
2023-03-17T04:23:17.176Z,14.40
2023-03-17T04:25:46.508Z,13.40
2023-03-17T04:28:15.519Z,12.80
2023-03-17T04:30:44.486Z,16.10
2023-03-17T04:33:13.486Z,15.10
2023-03-17T04:35:42.918Z,14.50
2023-03-17T04:38:12.852Z,15.30
2023-03-17T04:40:41.868Z,15.60
2023-03-17T04:43:10.991Z,14.90
2023-03-17T04:45:40.606Z,19.20
2023-03-17T04:48:09.597Z,17.20
2023-03-17T04:50:38.652Z,18.70
2023-03-17T04:53:08.484Z,13.50
2023-03-17T04:55:37.498Z,21.50
2023-03-17T04:58:06.479Z,16.60
2023-03-17T05:00:38.236Z,16.60
2023-03-17T05:03:20.181Z,15.90
2023-03-17T05:05:53.062Z,14.70
2023-03-17T05:08:22.011Z,18.30
2023-03-17T05:10:51.226Z,21.70
2023-03-17T05:13:20.275Z,15.00
2023-03-17T05:15:50.730Z,16.90
2023-03-17T05:18:22.070Z,15.40
2023-03-17T05:20:51.340Z,17.10
2023-03-17T05:23:21.700Z,21.10
2023-03-17T05:25:51.047Z,15.90
2023-03-17T05:28:20.745Z,18.50
2023-03-17T05:30:50.197Z,19.50
2023-03-17T05:33:19.578Z,17.70
2023-03-17T05:35:48.718Z,16.70
2023-03-17T05:38:19.247Z,17.20
2023-03-17T05:40:51.077Z,15.20
2023-03-17T05:43:20.740Z,17.90
2023-03-17T05:45:50.359Z,17.30
2023-03-17T05:48:19.395Z,17.30
2023-03-17T05:50:48.658Z,17.70
2023-03-17T05:53:18.107Z,16.40
2023-03-17T05:55:47.223Z,18.10
2023-03-17T05:58:16.780Z,18.10
2023-03-17T06:00:45.647Z,17.10
2023-03-17T06:03:14.701Z,15.90
2023-03-17T06:05:43.632Z,19.50
2023-03-17T06:08:13.325Z,21.50
2023-03-17T06:10:43.226Z,19.10
2023-03-17T06:13:12.245Z,17.30
2023-03-17T06:15:42.694Z,16.90
2023-03-17T06:18:11.699Z,14.80
2023-03-17T06:20:41.053Z,16.30
2023-03-17T06:23:10.076Z,14.90
2023-03-17T06:25:39.026Z,15.40
2023-03-17T06:28:08.049Z,14.50
2023-03-17T06:30:40.086Z,16.90
2023-03-17T06:33:09.940Z,15.00
2023-03-17T06:35:39.013Z,13.90
2023-03-17T06:38:08.477Z,13.00
2023-03-17T06:40:37.863Z,14.00
2023-03-17T06:43:06.954Z,13.40
2023-03-17T06:45:36.461Z,14.90
2023-03-17T06:48:06.415Z,13.50
2023-03-17T06:50:35.594Z,11.50
2023-03-17T06:53:05.437Z,13.80
2023-03-17T06:55:34.471Z,10.80
2023-03-17T06:58:03.509Z,13.30
2023-03-17T07:00:32.528Z,8.10
2023-03-17T07:03:02.510Z,7.00
2023-03-17T07:05:31.651Z,4.90
2023-03-17T07:08:00.726Z,4.00
2023-03-17T07:10:29.781Z,5.50
2023-03-17T07:12:59.362Z,4.00
2023-03-17T07:15:31.207Z,3.50
2023-03-17T07:18:00.931Z,6.30
2023-03-17T07:20:30.068Z,4.20
2023-03-17T07:23:00.334Z,5.40
2023-03-17T07:25:29.628Z,5.50
2023-03-17T07:27:58.722Z,5.40
2023-03-17T07:30:28.131Z,5.20
2023-03-17T07:32:58.143Z,9.00
2023-03-17T07:35:28.121Z,4.90
2023-03-17T07:37:57.194Z,5.80
2023-03-17T07:40:26.312Z,7.50
2023-03-17T07:42:55.830Z,6.80
2023-03-17T07:45:25.176Z,5.80
2023-03-17T07:47:54.512Z,5.30
2023-03-17T07:50:23.599Z,3.70
2023-03-17T07:52:52.594Z,12.40
2023-03-17T07:55:21.707Z,10.20
2023-03-17T07:57:50.880Z,5.60
2023-03-17T08:00:22.994Z,5.20
2023-03-17T08:03:06.815Z,9.10
2023-03-17T08:08:07.055Z,5.60
2023-03-17T08:10:36.249Z,7.40
2023-03-17T08:13:05.439Z,5.40
2023-03-17T08:15:34.403Z,13.00
2023-03-17T08:18:03.491Z,7.20
2023-03-17T08:20:33.250Z,7.00
2023-03-17T08:23:02.533Z,6.40
2023-03-17T08:25:31.604Z,5.10
2023-03-17T08:28:01.269Z,6.00
2023-03-17T08:30:33.305Z,6.30
2023-03-17T08:33:03.623Z,5.30
2023-03-17T08:35:33.815Z,6.60
2023-03-17T08:38:03.125Z,7.70
2023-03-17T08:40:32.612Z,6.40
2023-03-17T08:43:01.847Z,5.60
2023-03-17T08:45:31.516Z,8.90
2023-03-17T08:48:00.800Z,6.80
2023-03-17T08:50:30.427Z,8.00
2023-03-17T08:52:59.543Z,7.00
2023-03-17T08:55:28.604Z,7.50
2023-03-17T08:57:57.506Z,8.20
2023-03-17T09:00:27.680Z,8.20
2023-03-17T09:02:57.721Z,6.50
2023-03-17T09:05:26.954Z,8.90
2023-03-17T09:07:56.060Z,7.70
2023-03-17T09:10:25.908Z,7.30
2023-03-17T09:13:02.181Z,6.40
2023-03-17T09:15:33.448Z,6.70
2023-03-17T09:18:03.360Z,6.10
2023-03-17T09:20:33.428Z,7.80
2023-03-17T09:23:07.796Z,19.50
2023-03-17T09:25:37.825Z,6.20
2023-03-17T09:28:07.042Z,6.50
2023-03-17T09:30:36.786Z,7.90
2023-03-17T09:33:05.817Z,6.60
2023-03-17T09:35:34.952Z,7.40
2023-03-17T09:38:04.298Z,6.30
2023-03-17T09:40:36.860Z,7.80
2023-03-17T09:43:16.870Z,8.10
2023-03-17T09:45:46.579Z,10.10
2023-03-17T09:48:31.664Z,7.70
2023-03-17T09:51:04.749Z,8.50
2023-03-17T09:53:37.081Z,7.20
2023-03-17T09:56:12.251Z,8.50
2023-03-17T09:58:48.500Z,8.70
2023-03-17T10:01:19.467Z,6.20
2023-03-17T10:03:50.386Z,5.40
2023-03-17T10:06:38.388Z,7.10
2023-03-17T10:09:18.583Z,4.50
2023-03-17T10:11:50.804Z,6.50
2023-03-17T10:14:33.534Z,4.80
2023-03-17T10:17:12.197Z,8.30
2023-03-17T10:19:47.494Z,7.20
2023-03-17T10:22:21.222Z,5.30
2023-03-17T10:24:54.488Z,4.50
2023-03-17T10:27:24.270Z,6.40
2023-03-17T10:29:53.230Z,6.20
2023-03-17T10:32:22.848Z,8.70
2023-03-17T10:34:51.893Z,6.50
2023-03-17T10:37:23.229Z,5.40
2023-03-17T10:39:55.504Z,5.90
2023-03-17T10:42:25.889Z,6.10
2023-03-17T10:44:57.237Z,7.40
2023-03-17T10:47:31.486Z,8.00
2023-03-17T10:50:16.603Z,7.40
2023-03-17T10:52:46.831Z,5.60
2023-03-17T10:55:19.670Z,4.20
2023-03-17T10:57:56.083Z,5.10
2023-03-17T11:00:28.786Z,8.80
2023-03-17T11:03:00.104Z,4.60
2023-03-17T11:05:29.895Z,4.30
2023-03-17T11:08:07.735Z,3.90
2023-03-17T11:10:39.608Z,5.80
2023-03-17T11:13:09.774Z,4.50
2023-03-17T11:15:43.094Z,4.30
2023-03-17T11:18:18.794Z,6.90
2023-03-17T11:20:59.892Z,3.80
2023-03-17T11:23:48.286Z,5.50
2023-03-17T11:26:39.321Z,5.00
2023-03-17T11:29:23.166Z,5.20
2023-03-17T11:31:59.287Z,6.60
2023-03-17T11:34:39.013Z,6.80
2023-03-17T11:37:21.404Z,4.20
2023-03-17T11:39:57.949Z,3.60
2023-03-17T11:42:31.786Z,5.40
2023-03-17T11:45:15.840Z,2.90
2023-03-17T11:48:02.869Z,5.90
2023-03-17T11:50:39.496Z,5.50
2023-03-17T11:53:26.639Z,5.50
2023-03-17T11:56:01.388Z,6.10
2023-03-17T11:58:35.643Z,7.30
2023-03-17T12:01:08.459Z,7.50
2023-03-17T12:03:43.125Z,12.10
2023-03-17T12:06:19.137Z,9.30
2023-03-17T12:08:53.978Z,8.00
2023-03-17T12:11:28.296Z,7.00
2023-03-17T12:14:02.942Z,7.50
2023-03-17T12:16:35.166Z,10.60
2023-03-17T12:19:11.620Z,7.50
2023-03-17T12:21:47.067Z,8.00
2023-03-17T12:24:20.196Z,8.90
2023-03-17T12:26:55.062Z,11.00
2023-03-17T12:29:33.428Z,10.70
2023-03-17T12:32:07.745Z,5.70
2023-03-17T12:34:44.223Z,10.00
2023-03-17T12:37:14.470Z,11.80
2023-03-17T12:39:49.787Z,7.60
2023-03-17T12:42:29.550Z,8.60
2023-03-17T12:45:21.839Z,7.80
2023-03-17T12:48:05.091Z,8.10
2023-03-17T12:51:05.823Z,9.30
2023-03-17T12:53:37.897Z,7.90
2023-03-17T12:56:17.149Z,17.90
2023-03-17T12:58:49.088Z,13.00
2023-03-17T13:01:31.417Z,9.20
2023-03-17T13:04:07.288Z,11.70
2023-03-17T13:09:43.562Z,9.30
2023-03-17T13:12:55.534Z,6.10
2023-03-17T13:15:53.113Z,8.60
2023-03-17T13:18:44.999Z,6.30
2023-03-17T13:21:16.442Z,10.10
2023-03-17T13:23:47.744Z,8.30
2023-03-17T13:26:20.813Z,9.40
2023-03-17T13:28:51.149Z,9.00
2023-03-17T13:31:37.092Z,8.00
2023-03-17T13:34:15.755Z,7.20
2023-03-17T13:37:01.309Z,22.00
2023-03-17T13:39:52.308Z,9.90
2023-03-17T13:42:34.730Z,10.00
2023-03-17T13:45:21.913Z,9.20
2023-03-17T13:47:53.001Z,8.80
2023-03-17T13:50:30.185Z,8.40
2023-03-17T13:53:04.344Z,7.50
2023-03-17T13:55:42.204Z,6.50
2023-03-17T13:58:23.904Z,6.20
2023-03-17T14:01:00.665Z,10.80
2023-03-17T14:03:37.822Z,5.90
2023-03-17T14:06:08.873Z,7.30
2023-03-17T14:08:43.200Z,10.70
2023-03-17T14:11:23.261Z,7.80
2023-03-17T14:14:05.990Z,11.40
2023-03-17T14:16:42.819Z,7.20
2023-03-17T14:19:19.865Z,7.00
2023-03-17T14:21:49.447Z,5.20
2023-03-17T14:24:23.839Z,7.20
2023-03-17T14:26:53.413Z,5.40
2023-03-17T14:29:29.152Z,7.50
2023-03-17T14:32:05.075Z,7.10
2023-03-17T14:34:41.894Z,4.70
2023-03-17T14:37:12.799Z,10.50
2023-03-17T14:39:47.528Z,10.40
2023-03-17T14:42:20.144Z,5.70
2023-03-17T14:44:49.193Z,6.90
2023-03-17T14:47:23.374Z,8.90
2023-03-17T14:49:54.042Z,4.60
2023-03-17T14:52:26.956Z,9.00
2023-03-17T14:54:59.025Z,7.30
2023-03-17T14:57:31.630Z,7.10
2023-03-17T15:00:25.322Z,5.70
2023-03-17T15:02:58.698Z,11.50
2023-03-17T15:05:38.289Z,5.80
2023-03-17T15:08:42.829Z,6.30
2023-03-17T15:11:19.374Z,7.20
2023-03-17T15:13:49.942Z,10.30
2023-03-17T15:16:23.453Z,9.30
2023-03-17T15:19:02.613Z,7.70
2023-03-17T15:21:37.457Z,6.50
2023-03-17T15:24:21.565Z,9.60
2023-03-17T15:26:50.575Z,9.00
2023-03-17T15:29:19.501Z,8.40
2023-03-17T15:31:48.476Z,7.80
2023-03-17T15:34:17.432Z,8.30
2023-03-17T15:36:46.985Z,8.50
2023-03-17T15:39:15.922Z,9.40
2023-03-17T15:41:44.831Z,9.30
2023-03-17T15:44:14.194Z,7.50
2023-03-17T15:46:43.134Z,10.30
2023-03-17T15:49:12.608Z,9.20
2023-03-17T15:51:41.679Z,10.80
2023-03-17T15:54:15.265Z,13.40
2023-03-17T15:56:44.324Z,11.00
2023-03-17T15:59:13.216Z,9.90
2023-03-17T16:01:42.299Z,14.90
2023-03-17T16:04:11.518Z,8.50
2023-03-17T16:06:40.677Z,12.00
2023-03-17T16:09:16.822Z,8.30
2023-03-17T16:11:45.702Z,9.30
2023-03-17T16:14:14.731Z,28.00
2023-03-17T16:16:45.204Z,9.50
2023-03-17T16:19:19.516Z,9.50
2023-03-17T16:21:48.986Z,10.50
2023-03-17T16:24:21.474Z,10.80
2023-03-17T16:26:51.017Z,10.70
2023-03-17T16:29:21.277Z,14.20
2023-03-17T16:31:51.368Z,11.10
2023-03-17T16:34:22.508Z,11.00
2023-03-17T16:36:51.619Z,13.50
2023-03-17T16:39:23.025Z,12.50
2023-03-17T16:41:52.967Z,14.70
2023-03-17T16:44:23.438Z,14.00
2023-03-17T16:46:52.319Z,12.90
2023-03-17T16:49:22.488Z,13.10
2023-03-17T16:51:51.486Z,13.50
2023-03-17T16:54:20.596Z,13.60
2023-03-17T16:56:49.650Z,10.10
2023-03-17T16:59:20.989Z,11.40
2023-03-17T17:01:49.988Z,12.90
2023-03-17T17:04:18.941Z,12.20
2023-03-17T17:06:48.074Z,10.30
2023-03-17T17:09:17.049Z,12.40
2023-03-17T17:11:46.117Z,10.70
2023-03-17T17:14:15.124Z,12.90
2023-03-17T17:16:43.984Z,10.60
2023-03-17T17:19:16.406Z,9.20
2023-03-17T17:21:46.028Z,12.30
2023-03-17T17:24:15.779Z,12.20
2023-03-17T17:26:44.872Z,10.50
2023-03-17T17:29:13.976Z,9.90
2023-03-17T17:31:43.067Z,11.00
2023-03-17T17:34:12.024Z,10.50
2023-03-17T17:36:41.659Z,12.10
2023-03-17T17:39:11.469Z,15.80
2023-03-17T17:41:40.456Z,11.20
2023-03-17T17:44:09.339Z,12.60
2023-03-17T17:46:38.566Z,16.40
2023-03-17T17:49:07.487Z,9.50
2023-03-17T17:51:36.345Z,10.20
2023-03-17T17:54:05.575Z,12.90
2023-03-17T17:56:37.608Z,12.40
2023-03-17T17:59:07.535Z,11.90
2023-03-17T18:01:36.536Z,10.60
2023-03-17T18:04:05.713Z,9.60
2023-03-17T18:06:35.156Z,12.40
2023-03-17T18:09:05.162Z,10.50
2023-03-17T18:11:37.906Z,12.10
2023-03-17T18:14:07.706Z,11.70
2023-03-17T18:16:37.650Z,10.30
2023-03-17T18:19:09.262Z,13.20
2023-03-17T18:21:38.522Z,13.20
2023-03-17T18:24:08.491Z,13.70
2023-03-17T18:26:37.479Z,14.50
2023-03-17T18:29:07.408Z,23.60
2023-03-17T18:31:41.374Z,15.90
2023-03-17T18:34:17.110Z,15.00
2023-03-17T18:36:47.590Z,15.10
2023-03-17T18:39:17.174Z,14.90
2023-03-17T18:41:48.096Z,13.30
2023-03-17T18:44:18.479Z,14.00
2023-03-17T18:46:47.888Z,14.20
2023-03-17T18:49:16.973Z,13.50
2023-03-17T18:51:45.995Z,16.40
2023-03-17T18:54:14.883Z,15.70
2023-03-17T18:56:43.843Z,14.20
2023-03-17T18:59:12.847Z,11.70
2023-03-17T19:01:41.813Z,12.70
2023-03-17T19:04:10.787Z,11.80
2023-03-17T19:06:41.971Z,14.90
2023-03-17T19:09:11.827Z,12.50
2023-03-17T19:11:41.504Z,13.30
2023-03-17T19:14:11.295Z,11.30
2023-03-17T19:16:40.259Z,20.20
2023-03-17T19:19:09.457Z,17.20
2023-03-17T19:21:38.369Z,15.70
2023-03-17T19:24:08.177Z,14.50
2023-03-17T19:26:37.187Z,16.30
2023-03-17T19:29:06.147Z,15.30
2023-03-17T19:31:40.632Z,13.50
2023-03-17T19:34:10.809Z,16.60
2023-03-17T19:36:41.464Z,21.50
2023-03-17T19:39:12.709Z,16.90
2023-03-17T19:41:43.229Z,16.60
2023-03-17T19:44:12.199Z,14.30
2023-03-17T19:46:41.205Z,15.60
2023-03-17T19:49:11.021Z,14.50
2023-03-17T19:51:41.272Z,10.60
2023-03-17T19:54:11.199Z,11.90
2023-03-17T19:56:40.332Z,12.10
2023-03-17T19:59:09.359Z,5.80
2023-03-17T20:01:38.545Z,10.10
2023-03-17T20:04:09.350Z,5.60
2023-03-17T20:06:38.335Z,6.60
2023-03-17T20:09:08.417Z,7.80
2023-03-17T20:11:37.307Z,6.00
2023-03-17T20:14:06.617Z,5.20
2023-03-17T20:16:36.397Z,7.00
2023-03-17T20:19:06.121Z,7.20
2023-03-17T20:21:36.714Z,9.60
2023-03-17T20:24:06.832Z,3.20
2023-03-17T20:26:35.871Z,4.80
2023-03-17T20:29:04.916Z,4.90
2023-03-17T20:31:34.811Z,7.80
2023-03-17T20:34:03.916Z,5.70
2023-03-17T20:36:32.876Z,4.90
2023-03-17T20:39:01.911Z,5.60
2023-03-17T20:41:30.864Z,4.80
2023-03-17T20:44:00.291Z,3.90
2023-03-17T20:46:29.389Z,4.90
2023-03-17T20:48:58.919Z,5.60
2023-03-17T20:51:28.312Z,4.60
2023-03-17T20:53:57.228Z,5.30
2023-03-17T20:56:27.991Z,19.20
2023-03-17T20:58:57.904Z,13.30
2023-03-17T21:01:27.238Z,2.80
2023-03-17T21:03:56.257Z,3.90
2023-03-17T21:06:26.498Z,4.90
2023-03-17T21:08:55.593Z,3.50
2023-03-17T21:11:26.049Z,3.80
2023-03-17T21:13:55.667Z,3.70
2023-03-17T21:16:27.765Z,3.20
2023-03-17T21:18:57.069Z,3.40
2023-03-17T21:21:26.713Z,3.30
2023-03-17T21:23:56.519Z,3.90
2023-03-17T21:26:25.495Z,2.60
2023-03-17T21:28:55.947Z,4.20
2023-03-17T21:31:24.996Z,5.00
2023-03-17T21:33:53.901Z,3.80
2023-03-17T21:36:22.747Z,4.00
2023-03-17T21:38:51.621Z,5.30
2023-03-17T21:41:23.562Z,5.50
2023-03-17T21:43:52.616Z,5.00
2023-03-17T21:46:21.536Z,3.10
2023-03-17T21:48:50.528Z,5.10
2023-03-17T21:51:19.518Z,11.50
2023-03-17T21:53:48.388Z,6.00
2023-03-17T21:56:18.073Z,3.30
2023-03-17T21:58:48.386Z,2.90
2023-03-17T22:01:19.858Z,5.10
2023-03-17T22:03:49.552Z,3.20
2023-03-17T22:06:19.754Z,2.30
2023-03-17T22:08:50.084Z,4.30
2023-03-17T22:11:19.857Z,4.80
2023-03-17T22:13:49.306Z,5.70
2023-03-17T22:16:19.164Z,4.20
2023-03-17T22:18:48.168Z,6.80
2023-03-17T22:21:17.369Z,3.70
2023-03-17T22:23:47.229Z,3.90
2023-03-17T22:26:18.717Z,3.40
2023-03-17T22:28:49.678Z,3.70
2023-03-17T22:31:21.271Z,3.00
2023-03-17T22:33:54.598Z,6.30
2023-03-17T22:36:25.320Z,4.00
2023-03-17T22:38:55.597Z,3.50
2023-03-17T22:41:26.990Z,3.60
2023-03-17T22:43:56.902Z,3.10
2023-03-17T22:46:26.646Z,2.80
2023-03-17T22:48:55.660Z,4.40
2023-03-17T22:51:26.435Z,4.20
2023-03-17T22:53:55.952Z,3.20
2023-03-17T22:56:25.919Z,3.30
2023-03-17T22:58:55.742Z,4.00
2023-03-17T23:01:25.182Z,6.60
2023-03-17T23:03:54.659Z,5.10
2023-03-17T23:06:23.999Z,4.00
2023-03-17T23:08:52.988Z,2.60
2023-03-17T23:11:23.855Z,3.50
2023-03-17T23:13:54.220Z,9.20
2023-03-17T23:16:23.472Z,3.30
2023-03-17T23:18:52.778Z,5.90
2023-03-17T23:21:27.148Z,2.90
2023-03-17T23:23:56.475Z,3.30
2023-03-17T23:26:25.484Z,2.70
2023-03-17T23:28:54.442Z,6.50
2023-03-17T23:31:23.400Z,2.40
2023-03-17T23:33:52.375Z,6.70
2023-03-17T23:36:21.473Z,3.10
2023-03-17T23:38:51.729Z,4.40
2023-03-17T23:41:21.160Z,2.00
2023-03-17T23:43:50.523Z,7.00
2023-03-17T23:46:19.986Z,4.40
2023-03-17T23:48:49.312Z,5.30
2023-03-17T23:51:18.401Z,6.30
2023-03-17T23:53:47.436Z,4.70
2023-03-17T23:56:16.414Z,4.10
2023-03-17T23:58:46.135Z,7.40
